KCLE/CLE METAR and TAF weather

Enter ICAO airport designator
Station Type Date Time Source
KCLE METAR 2019/10/15 08:51 UTC NOAA

KCLE 150851Z 19003KT 10SM FEW250 04/01 A3014 RMK AO2 SLP210 T00390011 50000 $


Station Type Date Time Source
KCLE Decoded METAR 2019/10/15 08:51 UTC NOAA

CLEVELAND-HOPKINS INTERNATIONAL , OH, United States (KCLE) 41-24N 081-51W 236M
Oct 15, 2019 - 04:51 AM EDT / 2019.10.15 0851 UTC
Wind: from the S (190 degrees) at 3 MPH (3 KT):0
Visibility: 10 mile(s):0
Sky conditions: mostly clear
Temperature: 39.0 F (3.9 C)
Dew Point: 34.0 F (1.1 C)
Relative Humidity: 81%
Pressure (altimeter): 30.14 in. Hg (1020 hPa)
Pressure tendency: 0.00 inches (0.0 hPa) higher than three hours ago
ob: KCLE 150851Z 19003KT 10SM FEW250 04/01 A3014 RMK AO2 SLP210 T00390011 50000
cycle: 9

Station Type Date Time Source
KCLE TAF 2019/10/15 06:22 UTC NOAA

TAF KCLE 150520Z 1506/1612 00000KT P6SM SKC
FM160300 18008KT P6SM OVC070 WS020/21045KT
FM160600 19011KT 6SM -SHRA VCTS OVC050CB
FM160900 23011KT 6SM -SHRA OVC035
FM161100 26009KT 5SM -SHRA BKN025

Example: see airport list